« Back
NWS Peachtree City, Ga » Text Product » AHN Terminal Aerodrome Forecast


Printer-friendly Version
Current Version              Previous Versions:   1  2  3  4  5  6  7  8  9  

Terminal Aerodrome Forecast

885
FTUS42 KFFC 300900 AAA
TAFAHN
TAF AMD
KAHN 300949Z 3010/3106 VRB03KT P6SM SCT080 SCT250
     FM301600 14005KT P6SM SCT035 BKN060 PROB30 3020/3102 -TSRA
      BKN045CB
     FM310200 00000KT P6SM SCT050 SCT150 BKN250=



USA.gov is the U.S. government's official web portal to all federal, state and local government web resources and services.